Warbranch, Kentucky
Current Conditions -  °F | °C
As of 4:35 PM on Thursday 27 Nov 2014 (Local Time) from KI35 Reporting Station
Overcast Overcast  
Wind Chill: 23°   Ceiling: 2200
Heat Index: 30°   Visibility: 4mi
Dew Point: 25°   Wind: 8mph
Humidity: 80%   Direction: 300°WNW
Pressure: 30.3"   Gusts: NA
Location:  36.96°N, 83.45°W
Report Text: KI35 272135Z AUTO 30007KT 4SM SCT017 BKN022 OVC032 M01/M04 A3030 RMK AO1
Loading
Personal Weather Stations






























Interactive Weather Map New forecast layout! Learn more

10-Day Weather Forecast

Advertisements
Track Severe Weather on mobile